Time;durP1;ratioP1;P1;durP2;ratioP2;P2;SDS_P1;SDS_P2;PMS_P1;PMS_P2;Temp;Humidity;BMP_temperature;BMP_pressure;BME280_temperature;BME280_humidity;BME280_pressure;Samples;Min_cycle;Max_cycle;Signal;HPM_P1;HPM_P2
2022/01/14 00:01:43;;;;;;;1.75;1.20;;;;;;;4.12;100.00;98088.47;5152054;27;20051;-49
2022/01/14 00:04:09;;;;;;;2.75;1.40;;;;;;;4.11;100.00;98091.56;5151617;27;20043;-50
2022/01/14 00:06:37;;;;;;;3.60;1.33;;;;;;;4.13;100.00;98103.63;5152115;27;20050;-49
2022/01/14 00:09:06;;;;;;;3.58;1.38;;;;;;;4.14;100.00;98110.63;5151655;27;20412;-51
2022/01/14 00:11:33;;;;;;;2.10;0.98;;;;;;;4.15;100.00;98114.91;5151634;27;20046;-49
2022/01/14 00:14:09;;;;;;;2.33;1.10;;;;;;;4.17;100.00;98118.06;5151512;27;20115;-52
2022/01/14 00:16:36;;;;;;;2.97;1.10;;;;;;;4.21;100.00;98129.81;5151374;27;20145;-53
2022/01/14 00:19:03;;;;;;;1.75;0.82;;;;;;;4.23;100.00;98135.69;5151734;27;20049;-52
2022/01/14 00:21:32;;;;;;;1.77;1.15;;;;;;;4.18;100.00;98127.78;5151391;27;20142;-50
2022/01/14 00:24:07;;;;;;;2.75;2.00;;;;;;;4.24;100.00;98131.03;5151733;27;20142;-52
2022/01/14 00:32:08;;;;;;;4.45;0.95;;;;;;;4.29;100.00;98129.97;5151023;27;20485;-50
2022/01/14 00:34:35;;;;;;;1.65;1.00;;;;;;;4.31;100.00;98136.66;5150581;27;20078;-48
2022/01/14 00:37:02;;;;;;;2.20;0.77;;;;;;;4.30;100.00;98140.50;5151394;27;20068;-49
2022/01/14 00:39:28;;;;;;;1.83;1.00;;;;;;;4.26;100.00;98136.88;5151420;27;20058;-48
2022/01/14 00:41:55;;;;;;;2.00;0.80;;;;;;;4.30;100.00;98115.28;5151334;27;20046;-49
2022/01/14 00:44:22;;;;;;;1.85;0.90;;;;;;;4.29;100.00;98117.19;5150888;27;20078;-49
2022/01/14 00:46:50;;;;;;;0.98;0.70;;;;;;;4.31;100.00;98111.44;5151263;27;20050;-49
2022/01/14 00:49:19;;;;;;;1.45;0.65;;;;;;;4.36;100.00;98089.47;5151066;27;20088;-50
2022/01/14 00:51:46;;;;;;;2.05;0.85;;;;;;;4.34;100.00;98086.31;5151452;27;20047;-48
2022/01/14 00:54:13;;;;;;;3.97;0.70;;;;;;;4.29;100.00;98070.28;5150979;27;20130;-50
2022/01/14 00:57:00;;;;;;;2.60;0.75;;;;;;;4.26;100.00;98058.22;5151034;27;20458;-51
2022/01/14 00:59:25;;;;;;;1.85;0.60;;;;;;;4.27;100.00;98045.47;5151107;27;20424;-50
2022/01/14 01:01:53;;;;;;;0.52;0.50;;;;;;;4.22;100.00;98025.56;5150903;27;20138;-50
2022/01/14 01:04:21;;;;;;;0.60;0.60;;;;;;;4.24;100.00;98027.94;5151077;27;20073;-49
2022/01/14 01:06:49;;;;;;;1.13;0.70;;;;;;;4.25;100.00;98005.09;5150870;27;20055;-49
2022/01/14 01:09:16;;;;;;;1.05;0.60;;;;;;;4.18;100.00;97999.50;5151027;27;20509;-50
2022/01/14 01:11:49;;;;;;;1.77;0.70;;;;;;;4.18;100.00;98003.00;5150807;27;20078;-51
2022/01/14 01:14:20;;;;;;;0.70;0.57;;;;;;;4.21;100.00;97977.09;5150999;27;20474;-49
2022/01/14 01:16:46;;;;;;;0.50;0.50;;;;;;;4.20;100.00;97960.03;5150785;27;20531;-50
2022/01/14 01:19:12;;;;;;;0.82;0.75;;;;;;;4.22;100.00;97962.38;5150994;27;20046;-49
2022/01/14 01:21:39;;;;;;;0.60;0.50;;;;;;;4.25;100.00;97967.91;5151473;27;20157;-49
2022/01/14 01:24:08;;;;;;;1.90;1.40;;;;;;;4.23;100.00;97955.81;5150885;27;20061;-49
2022/01/14 01:26:37;;;;;;;0.90;0.75;;;;;;;4.22;100.00;97960.47;5151027;27;20051;-48
2022/01/14 01:29:29;;;;;;;2.47;1.30;;;;;;;4.28;100.00;97960.22;5150587;27;20047;-49
2022/01/14 01:31:54;;;;;;;0.82;0.70;;;;;;;4.23;100.00;97937.63;5150263;27;20095;-48
2022/01/14 01:34:22;;;;;;;4.40;0.60;;;;;;;4.23;100.00;97947.69;5150584;27;20051;-49
2022/01/14 01:36:50;;;;;;;0.55;0.55;;;;;;;4.24;100.00;97925.63;5150528;27;20050;-49
2022/01/14 01:39:19;;;;;;;0.70;0.65;;;;;;;4.20;100.00;97924.78;5150855;27;20137;-49
2022/01/14 01:41:48;;;;;;;0.60;0.50;;;;;;;4.20;100.00;97921.28;5150456;27;20451;-49
2022/01/14 01:44:17;;;;;;;0.77;0.52;;;;;;;4.19;100.00;97931.31;5150449;27;20513;-48
2022/01/14 01:46:46;;;;;;;3.22;0.70;;;;;;;4.19;100.00;97936.75;5151641;27;20054;-49
2022/01/14 01:49:15;;;;;;;0.50;0.50;;;;;;;4.21;100.00;97917.41;5154300;27;20043;-49
2022/01/14 01:51:44;;;;;;;3.35;0.73;;;;;;;4.22;100.00;97919.00;5153865;27;20520;-48
2022/01/14 01:54:11;;;;;;;1.27;0.60;;;;;;;4.23;100.00;97917.84;5154129;27;20412;-49
2022/01/14 01:56:38;;;;;;;2.80;0.80;;;;;;;4.22;100.00;97921.69;5153675;27;20126;-48
2022/01/14 01:59:05;;;;;;;1.40;0.70;;;;;;;4.22;100.00;97917.06;5154154;27;20047;-50
2022/01/14 02:01:31;;;;;;;2.08;0.73;;;;;;;4.23;100.00;97885.28;5153835;27;20054;-49
2022/01/14 02:03:58;;;;;;;1.92;0.98;;;;;;;4.18;100.00;97880.16;5153679;27;20047;-49
2022/01/14 02:06:24;;;;;;;1.42;0.70;;;;;;;4.21;100.00;97882.94;5153687;27;20046;-51
2022/01/14 02:08:51;;;;;;;2.60;1.23;;;;;;;4.13;100.00;97886.66;5153599;27;20398;-50
2022/01/14 02:11:18;;;;;;;1.25;0.70;;;;;;;4.14;100.00;97877.34;5153590;27;20050;-49
2022/01/14 02:13:45;;;;;;;0.85;0.80;;;;;;;4.14;100.00;97868.44;5153448;27;20053;-53
2022/01/14 02:16:19;;;;;;;1.50;0.60;;;;;;;4.20;100.00;97853.47;5153437;27;20527;-49
2022/01/14 02:19:10;;;;;;;0.55;0.52;;;;;;;4.16;100.00;97845.22;5153407;27;20505;-50
2022/01/14 02:24:33;;;;;;;4.45;0.93;;;;;;;4.12;100.00;97852.50;5153616;27;20073;-49
2022/01/14 02:27:01;;;;;;;1.15;0.88;;;;;;;4.15;100.00;97851.81;5153319;27;20548;-51
2022/01/14 02:29:27;;;;;;;2.28;0.93;;;;;;;4.14;100.00;97855.66;5153773;27;20099;-53
2022/01/14 02:31:54;;;;;;;1.83;1.13;;;;;;;4.22;100.00;97857.38;5152731;27;20043;-52
2022/01/14 02:34:20;;;;;;;3.05;1.30;;;;;;;4.24;100.00;97846.19;5153388;27;20073;-52
2022/01/14 02:36:48;;;;;;;2.28;1.05;;;;;;;4.23;100.00;97839.16;5152967;27;20046;-49
2022/01/14 02:39:16;;;;;;;1.20;0.98;;;;;;;4.23;100.00;97839.97;5153303;27;20053;-50
2022/01/14 02:41:45;;;;;;;2.60;0.77;;;;;;;4.24;100.00;97838.84;5153078;27;20580;-50
2022/01/14 02:44:17;;;;;;;1.70;0.98;;;;;;;4.22;100.00;97824.81;5153452;27;20095;-49
2022/01/14 02:46:52;;;;;;;3.70;1.23;;;;;;;4.15;100.00;97824.69;5153111;27;20091;-50
2022/01/14 02:49:18;;;;;;;5.57;0.88;;;;;;;4.21;100.00;97815.13;5152983;27;20050;-49
2022/01/14 02:51:45;;;;;;;6.28;1.85;;;;;;;4.22;100.00;97811.25;5153149;27;20413;-49
2022/01/14 02:54:15;;;;;;;2.40;1.20;;;;;;;4.20;100.00;97797.28;5153025;27;20042;-49
2022/01/14 02:56:44;;;;;;;5.78;1.27;;;;;;;4.18;100.00;97815.03;5152884;27;20542;-49
2022/01/14 02:59:11;;;;;;;2.53;1.35;;;;;;;4.13;100.00;97801.75;5152673;27;20062;-52
2022/01/14 03:01:38;;;;;;;3.70;1.02;;;;;;;4.09;100.00;97788.13;5153006;27;20077;-48
2022/01/14 03:04:05;;;;;;;7.50;1.38;;;;;;;4.12;100.00;97776.56;5152578;27;20421;-49
2022/01/14 03:06:31;;;;;;;3.28;1.17;;;;;;;4.10;100.00;97778.88;5152627;27;20051;-51
2022/01/14 03:08:58;;;;;;;6.85;1.25;;;;;;;4.10;100.00;97764.50;5152594;27;20072;-49
2022/01/14 03:11:31;;;;;;;5.75;1.20;;;;;;;4.09;100.00;97741.22;5152464;27;20047;-49
2022/01/14 03:13:58;;;;;;;4.63;1.20;;;;;;;4.06;100.00;97728.38;5152634;27;20145;-49
2022/01/14 03:16:24;;;;;;;4.90;1.73;;;;;;;4.03;100.00;97708.19;5152521;27;20101;-49
2022/01/14 03:18:53;;;;;;;5.55;1.33;;;;;;;4.03;100.00;97701.97;5152693;27;20133;-49
2022/01/14 03:21:27;;;;;;;5.57;1.10;;;;;;;4.03;100.00;97704.69;5152497;27;20049;-49
2022/01/14 03:24:03;;;;;;;3.83;0.90;;;;;;;3.89;100.00;97700.53;5152365;27;20050;-49
2022/01/14 03:26:30;;;;;;;1.00;0.90;;;;;;;3.96;100.00;97680.94;5152233;27;20137;-49
2022/01/14 03:28:57;;;;;;;5.63;1.40;;;;;;;3.95;100.00;97692.91;5152540;27;20102;-49
2022/01/14 03:31:23;;;;;;;8.38;1.20;;;;;;;3.95;100.00;97665.81;5151796;27;20406;-53
2022/01/14 03:33:49;;;;;;;5.10;1.20;;;;;;;3.97;100.00;97648.03;5152386;27;20046;-49
2022/01/14 03:36:15;;;;;;;3.05;1.10;;;;;;;4.01;100.00;97631.84;5151964;27;20148;-49
2022/01/14 03:38:42;;;;;;;6.55;1.58;;;;;;;3.96;100.00;97635.63;5152036;27;20053;-49
2022/01/14 03:41:08;;;;;;;4.53;1.75;;;;;;;3.98;100.00;97641.47;5152171;27;20420;-49
2022/01/14 03:43:36;;;;;;;8.45;1.65;;;;;;;3.98;100.00;97617.06;5152154;27;20047;-49
2022/01/14 03:46:02;;;;;;;3.67;1.27;;;;;;;4.04;100.00;97604.00;5152332;27;20134;-51
2022/01/14 03:48:29;;;;;;;3.58;1.15;;;;;;;3.99;100.00;97599.66;5151880;27;20141;-48
2022/01/14 03:50:55;;;;;;;3.35;1.02;;;;;;;4.04;100.00;97587.75;5152222;27;20125;-49
2022/01/14 03:53:22;;;;;;;3.45;1.50;;;;;;;4.03;100.00;97574.53;5152077;27;20046;-49
2022/01/14 03:55:48;;;;;;;3.92;1.75;;;;;;;4.03;100.00;97574.53;5152025;27;20103;-49
2022/01/14 03:58:14;;;;;;;3.90;1.35;;;;;;;4.03;100.00;97575.31;5151892;27;20055;-50
2022/01/14 04:00:41;;;;;;;7.18;2.30;;;;;;;4.06;100.00;97561.03;5151874;27;20051;-53
2022/01/14 04:03:08;;;;;;;2.25;1.20;;;;;;;4.10;100.00;97561.09;5151735;27;20047;-50
2022/01/14 04:05:35;;;;;;;2.20;1.20;;;;;;;4.00;100.00;97541.59;5151627;27;20050;-49
2022/01/14 04:08:02;;;;;;;5.22;1.60;;;;;;;3.96;100.00;97529.88;5151744;27;20082;-50
2022/01/14 04:10:29;;;;;;;8.02;1.88;;;;;;;4.04;100.00;97521.88;5150691;27;20497;-50
2022/01/14 04:13:00;;;;;;;3.45;0.95;;;;;;;4.06;100.00;97536.63;5151889;27;20047;-50
2022/01/14 04:15:40;;;;;;;4.50;1.20;;;;;;;4.08;100.00;97539.78;5151499;27;20687;-49
2022/01/14 04:18:09;;;;;;;8.23;1.60;;;;;;;4.07;100.00;97519.22;5151923;27;20078;-50
2022/01/14 04:20:37;;;;;;;5.28;1.27;;;;;;;4.11;100.00;97536.34;5151650;27;20057;-51
2022/01/14 04:23:05;;;;;;;3.20;1.52;;;;;;;4.15;100.00;97533.69;5151516;27;20057;-50
2022/01/14 04:25:31;;;;;;;3.33;1.23;;;;;;;4.20;100.00;97545.03;5163960;27;20050;-52
2022/01/14 04:27:57;;;;;;;3.05;1.30;;;;;;;4.22;100.00;97531.09;5170480;27;20051;-49
2022/01/14 04:30:24;;;;;;;2.75;1.27;;;;;;;4.19;100.00;97529.09;5171980;27;20050;-49
2022/01/14 04:32:51;;;;;;;4.05;1.20;;;;;;;4.25;100.00;97527.66;5171844;27;20409;-52
2022/01/14 04:35:18;;;;;;;4.60;1.27;;;;;;;4.14;100.00;97527.47;5172039;27;20049;-53
2022/01/14 04:37:45;;;;;;;2.45;1.20;;;;;;;4.19;100.00;97520.97;5171427;27;20057;-49
2022/01/14 04:40:13;;;;;;;3.25;1.25;;;;;;;4.21;100.00;97505.91;5151484;27;20050;-49
2022/01/14 04:42:41;;;;;;;5.85;1.80;;;;;;;4.27;100.00;97509.09;5151186;27;20199;-52
2022/01/14 04:45:09;;;;;;;5.07;1.33;;;;;;;4.27;100.00;97511.81;5151186;27;20054;-52
2022/01/14 04:47:44;;;;;;;3.03;1.27;;;;;;;4.24;100.00;97486.19;5151142;27;20050;-51
2022/01/14 04:50:11;;;;;;;3.65;1.70;;;;;;;4.28;100.00;97466.47;5151295;27;20104;-54
2022/01/14 04:52:39;;;;;;;7.35;1.85;;;;;;;4.26;100.00;97453.25;5151108;27;20057;-49
2022/01/14 04:55:06;;;;;;;3.42;1.20;;;;;;;4.30;100.00;97440.56;5150990;27;20055;-49
2022/01/14 04:57:33;;;;;;;8.18;1.63;;;;;;;4.28;100.00;97452.91;5150882;27;20099;-49
2022/01/14 04:59:59;;;;;;;10.38;1.30;;;;;;;4.36;100.00;97444.50;5151737;27;20047;-57
2022/01/14 05:02:26;;;;;;;4.72;1.25;;;;;;;4.43;100.00;97439.19;5151253;27;20042;-52
2022/01/14 05:04:55;;;;;;;7.00;1.52;;;;;;;4.51;100.00;97428.44;5150974;27;20058;-58
2022/01/14 05:07:24;;;;;;;4.07;1.55;;;;;;;4.52;100.00;97430.00;5169989;27;20103;-57
2022/01/14 05:10:07;;;;;;;3.28;0.88;;;;;;;4.63;100.00;97431.72;5171780;27;20054;-57
2022/01/14 05:12:35;;;;;;;3.40;1.33;;;;;;;4.69;100.00;97453.88;5171583;27;20054;-54
2022/01/14 05:15:02;;;;;;;2.67;0.90;;;;;;;4.62;100.00;97445.63;5171561;27;20096;-54
2022/01/14 05:17:29;;;;;;;3.03;1.15;;;;;;;4.69;100.00;97443.00;5170968;27;20393;-52
2022/01/14 05:19:58;;;;;;;4.78;1.30;;;;;;;4.70;100.00;97463.59;5171513;27;20047;-52
2022/01/14 05:22:24;;;;;;;3.88;2.08;;;;;;;4.78;100.00;97450.88;5172871;27;20054;-53
2022/01/14 05:24:51;;;;;;;8.52;2.88;;;;;;;4.69;100.00;97453.88;5165610;27;20515;-56
2022/01/14 05:27:17;;;;;;;18.80;6.40;;;;;;;4.70;100.00;97463.59;5174908;27;20195;-56
2022/01/14 05:29:44;;;;;;;19.15;4.85;;;;;;;4.67;100.00;97470.53;5175002;27;20130;-58
2022/01/14 05:32:13;;;;;;;16.80;4.30;;;;;;;4.76;100.00;97467.53;5174150;27;20510;-54
2022/01/14 05:34:41;;;;;;;11.70;4.05;;;;;;;4.80;100.00;97445.84;5157148;27;20061;-56
2022/01/14 05:37:08;;;;;;;4.18;1.33;;;;;;;4.82;100.00;97430.78;5160717;27;20058;-56
2022/01/14 05:39:35;;;;;;;10.27;3.85;;;;;;;4.85;100.00;97424.59;5154883;27;20397;-54
2022/01/14 05:42:03;;;;;;;8.13;3.58;;;;;;;4.85;100.00;97449.03;5160427;27;20050;-51
2022/01/14 05:44:30;;;;;;;51.58;21.27;;;;;;;4.83;100.00;97461.41;5153805;27;20054;-51
2022/01/14 05:46:57;;;;;;;11.23;3.72;;;;;;;4.94;100.00;97460.41;5160457;27;20046;-57
2022/01/14 05:49:24;;;;;;;23.23;7.72;;;;;;;4.88;100.00;97469.25;5168487;27;20050;-53
2022/01/14 05:51:50;;;;;;;22.38;6.55;;;;;;;4.94;100.00;97441.41;5167652;27;20699;-53
2022/01/14 05:54:17;;;;;;;34.25;10.45;;;;;;;4.90;100.00;97458.81;5173898;27;20464;-59
2022/01/14 05:56:44;;;;;;;9.73;3.35;;;;;;;4.94;100.00;97462.34;5174563;27;20060;-56
2022/01/14 05:59:11;;;;;;;66.50;17.90;;;;;;;5.00;100.00;97476.38;5171864;27;20477;-54
2022/01/14 06:01:38;;;;;;;45.67;11.32;;;;;;;5.04;100.00;97477.22;5174152;27;20053;-54
2022/01/14 06:04:05;;;;;;;149.73;32.15;;;;;;;5.02;100.00;97465.94;5174217;27;20083;-55
2022/01/14 06:06:33;;;;;;;19.65;3.63;;;;;;;5.05;100.00;97462.47;5174224;27;20103;-51
2022/01/14 06:09:00;;;;;;;85.18;17.08;;;;;;;5.14;100.00;97443.97;5166305;27;20526;-51
2022/01/14 06:11:26;;;;;;;13.98;3.50;;;;;;;4.99;100.00;97445.72;5160029;27;20416;-51
2022/01/14 06:13:53;;;;;;;52.22;9.05;;;;;;;5.10;100.00;97457.50;5173751;27;20053;-53
2022/01/14 06:16:20;;;;;;;11.43;3.08;;;;;;;5.12;100.00;97452.47;5174064;27;20454;-51
2022/01/14 06:18:47;;;;;;;4.22;1.50;;;;;;;5.12;100.00;97438.88;5174154;27;20046;-49
2022/01/14 06:21:14;;;;;;;61.33;17.17;;;;;;;5.06;100.00;97436.88;5171582;27;20072;-51
2022/01/14 06:23:41;;;;;;;69.13;19.17;;;;;;;5.04;100.00;97434.53;5155013;27;20141;-49
2022/01/14 06:26:08;;;;;;;12.27;3.65;;;;;;;5.12;100.00;97411.72;5173687;27;20046;-51
2022/01/14 06:28:35;;;;;;;18.20;5.18;;;;;;;5.03;100.00;97416.69;5172865;27;20455;-52
2022/01/14 06:31:01;;;;;;;23.08;5.57;;;;;;;5.03;100.00;97399.59;5173481;27;20046;-53
2022/01/14 06:33:28;;;;;;;32.75;9.43;;;;;;;5.00;100.00;97390.28;5172873;27;20129;-52
2022/01/14 06:35:54;;;;;;;40.78;10.98;;;;;;;4.97;100.00;97379.38;5160691;27;20459;-53
2022/01/14 06:38:21;;;;;;;17.98;3.38;;;;;;;4.94;100.00;97357.22;5152907;27;20047;-50
2022/01/14 06:40:47;;;;;;;37.13;12.05;;;;;;;5.02;100.00;97352.63;5152949;27;20054;-54
2022/01/14 06:43:14;;;;;;;28.00;7.65;;;;;;;4.94;100.00;97348.28;5152413;27;20494;-51
2022/01/14 06:45:40;;;;;;;67.20;24.33;;;;;;;5.00;100.00;97335.94;5162437;27;20054;-54
2022/01/14 06:48:07;;;;;;;28.52;7.85;;;;;;;4.98;100.00;97313.81;5173372;27;20054;-50
2022/01/14 06:50:34;;;;;;;2.92;1.02;;;;;;;4.95;100.00;97320.75;5152715;27;20454;-52
2022/01/14 06:53:00;;;;;;;14.45;4.85;;;;;;;4.98;100.00;97275.00;5153525;27;20051;-53
2022/01/14 06:55:27;;;;;;;3.17;1.08;;;;;;;5.03;100.00;97299.91;5154587;27;20049;-53
2022/01/14 06:57:53;;;;;;;9.85;3.00;;;;;;;5.10;100.00;97288.31;5152339;27;20057;-52
2022/01/14 07:00:21;;;;;;;15.13;3.75;;;;;;;5.10;100.00;97283.66;5152470;27;20047;-57
2022/01/14 07:02:48;;;;;;;5.07;1.98;;;;;;;5.05;100.00;97288.66;5152307;27;20125;-53
2022/01/14 07:05:15;;;;;;;14.60;4.80;;;;;;;5.15;100.00;97268.97;5152194;27;20095;-53
2022/01/14 07:07:42;;;;;;;5.60;2.33;;;;;;;5.11;100.00;97249.13;5171913;27;20432;-51
2022/01/14 07:10:09;;;;;;;10.13;3.22;;;;;;;5.14;100.00;97245.66;5172884;27;20117;-55
2022/01/14 07:12:37;;;;;;;3.40;1.85;;;;;;;5.14;100.00;97237.53;5172995;27;20053;-52
2022/01/14 07:15:07;;;;;;;5.15;2.28;;;;;;;5.06;100.00;97225.81;5172882;27;20046;-55
2022/01/14 07:17:33;;;;;;;5.75;1.40;;;;;;;5.08;100.00;97204.50;5153596;27;20050;-52
2022/01/14 07:20:05;;;;;;;1.90;1.60;;;;;;;5.05;100.00;97204.47;5152235;27;20047;-51
2022/01/14 07:22:32;;;;;;;2.70;1.50;;;;;;;5.12;100.00;97186.28;5152523;27;20046;-53
2022/01/14 07:24:59;;;;;;;2.28;1.05;;;;;;;5.10;100.00;97168.81;5152784;27;20073;-54
2022/01/14 07:27:26;;;;;;;4.22;1.50;;;;;;;5.11;100.00;97159.50;5169393;27;20053;-54
2022/01/14 07:29:53;;;;;;;4.68;1.92;;;;;;;5.02;100.00;97138.09;5173385;27;20455;-53
2022/01/14 07:32:19;;;;;;;5.75;1.60;;;;;;;5.09;100.00;97124.56;5172692;27;20069;-55
2022/01/14 07:34:45;;;;;;;2.40;1.17;;;;;;;5.09;100.00;97110.19;5173326;27;20042;-53
2022/01/14 07:37:12;;;;;;;1.13;1.02;;;;;;;5.10;100.00;97090.06;5169710;27;20050;-54
2022/01/14 07:39:38;;;;;;;1.77;1.15;;;;;;;5.07;100.00;97097.00;5173037;27;20050;-56
2022/01/14 07:42:06;;;;;;;4.85;2.05;;;;;;;5.10;100.00;97066.38;5172969;27;20054;-54
2022/01/14 07:44:33;;;;;;;4.22;1.95;;;;;;;5.14;100.00;97058.25;5173072;27;20136;-54
2022/01/14 07:46:59;;;;;;;2.42;0.73;;;;;;;5.17;100.00;97061.00;5167977;27;20098;-55
2022/01/14 07:49:26;;;;;;;5.18;1.75;;;;;;;5.16;100.00;97053.19;5156114;27;20528;-55
2022/01/14 07:51:52;;;;;;;2.00;1.35;;;;;;;5.29;100.00;97051.72;5160413;27;20140;-54
2022/01/14 07:54:18;;;;;;;1.70;1.05;;;;;;;5.27;100.00;97026.88;5168142;27;20043;-51
2022/01/14 07:56:47;;;;;;;2.38;0.98;;;;;;;5.34;100.00;97018.75;5170813;27;20077;-50
2022/01/14 07:59:16;;;;;;;3.00;1.20;;;;;;;5.28;100.00;97022.22;5172259;27;20058;-51
2022/01/14 08:01:44;;;;;;;5.88;1.10;;;;;;;5.22;100.00;97024.53;5172148;27;20046;-61
2022/01/14 08:04:12;;;;;;;2.58;1.02;;;;;;;5.22;100.00;97019.09;5161343;27;20058;-53
2022/01/14 08:06:46;;;;;;;1.55;1.13;;;;;;;5.32;100.00;97001.28;5151400;27;20137;-58
2022/01/14 08:09:13;;;;;;;2.25;1.50;;;;;;;5.34;100.00;96982.66;5151645;27;20078;-52
2022/01/14 08:11:39;;;;;;;1.10;1.00;;;;;;;5.45;100.00;96982.69;5151819;27;20054;-54
2022/01/14 08:14:05;;;;;;;2.25;1.50;;;;;;;5.38;100.00;96954.34;5151642;27;20554;-53
2022/01/14 08:16:32;;;;;;;4.47;2.00;;;;;;;5.39;100.00;96968.69;5151393;27;20047;-54
2022/01/14 08:18:59;;;;;;;5.47;2.03;;;;;;;5.45;100.00;96948.13;5151717;27;20498;-52
2022/01/14 08:21:25;;;;;;;6.10;4.30;;;;;;;5.51;100.00;96933.00;5151518;27;20433;-53
2022/01/14 08:23:51;;;;;;;2.53;1.35;;;;;;;5.46;100.00;96946.97;5158070;27;20046;-50
2022/01/14 08:26:17;;;;;;;1.45;1.20;;;;;;;5.57;100.00;96938.84;5172138;27;20050;-49
2022/01/14 08:28:44;;;;;;;1.90;1.20;;;;;;;5.59;100.00;96947.38;5171086;27;20104;-51
2022/01/14 08:31:10;;;;;;;3.55;1.60;;;;;;;5.59;100.00;96940.00;5166313;27;20416;-53
2022/01/14 08:33:37;;;;;;;2.83;1.55;;;;;;;5.64;100.00;96938.88;5156168;27;20522;-55
2022/01/14 08:36:04;;;;;;;3.13;2.05;;;;;;;5.69;100.00;96935.75;5171581;27;20209;-56
2022/01/14 08:38:30;;;;;;;5.97;1.90;;;;;;;5.75;100.00;96936.16;5171989;27;20050;-55
2022/01/14 08:40:56;;;;;;;6.50;1.95;;;;;;;5.83;100.00;96933.06;5171292;27;20046;-60
2022/01/14 08:43:23;;;;;;;2.95;1.17;;;;;;;6.00;100.00;96914.41;5152806;27;20046;-60
2022/01/14 08:45:49;;;;;;;7.85;2.22;;;;;;;6.17;100.00;96926.47;5151303;27;20556;-56
2022/01/14 08:48:15;;;;;;;2.25;1.33;;;;;;;6.23;100.00;96957.56;5151138;27;20046;-59
2022/01/14 08:50:42;;;;;;;1.38;1.20;;;;;;;6.21;100.00;96952.50;5151391;27;20528;-61
2022/01/14 08:53:13;;;;;;;1.83;0.95;;;;;;;6.05;100.00;96961.06;5152003;27;20133;-60
2022/01/14 08:55:40;;;;;;;1.33;1.00;;;;;;;5.97;100.00;96959.50;5151841;27;20088;-61
2022/01/14 08:58:07;;;;;;;4.35;1.25;;;;;;;5.91;100.00;96950.16;5154009;27;20054;-60
2022/01/14 09:00:33;;;;;;;3.15;1.27;;;;;;;5.94;100.00;96927.66;5154595;27;20051;-60
2022/01/14 09:03:02;;;;;;;1.13;0.82;;;;;;;5.97;100.00;96913.28;5160069;27;20557;-59
2022/01/14 09:05:28;;;;;;;2.67;1.20;;;;;;;5.95;100.00;96899.28;5160183;27;20127;-59
2022/01/14 09:07:55;;;;;;;4.07;1.15;;;;;;;5.96;100.00;96898.09;5154496;27;20122;-60
2022/01/14 09:10:22;;;;;;;2.80;1.17;;;;;;;5.93;100.00;96887.22;5154412;27;20137;-61
2022/01/14 09:12:48;;;;;;;3.72;1.52;;;;;;;5.87;100.00;96889.56;5166400;27;20098;-61
2022/01/14 09:15:16;;;;;;;2.28;1.45;;;;;;;5.80;100.00;96870.53;5174749;27;20541;-60
2022/01/14 09:17:42;;;;;;;2.63;1.10;;;;;;;5.79;100.00;96856.13;5174524;27;20050;-61
2022/01/14 09:20:10;;;;;;;14.30;5.50;;;;;;;5.76;100.00;96839.81;5174788;27;20054;-59
2022/01/14 09:22:36;;;;;;;5.90;2.05;;;;;;;5.76;100.00;96826.22;5165144;27;20046;-60
2022/01/14 09:25:05;;;;;;;7.00;1.30;;;;;;;5.72;100.00;96826.22;5154031;27;20046;-60
2022/01/14 09:27:33;;;;;;;42.53;16.73;;;;;;;5.71;100.00;96816.53;5153779;27;20085;-59
2022/01/14 09:30:00;;;;;;;3.97;1.55;;;;;;;5.78;100.00;96811.09;5153937;27;20470;-61
2022/01/14 09:32:26;;;;;;;4.68;2.67;;;;;;;5.82;100.00;96792.03;5161416;27;20098;-61
2022/01/14 09:34:53;;;;;;;3.72;1.77;;;;;;;5.80;100.00;96808.00;5174694;27;20050;-61
2022/01/14 09:37:19;;;;;;;2.42;0.88;;;;;;;5.83;100.00;96786.22;5174513;27;20450;-58
2022/01/14 09:39:45;;;;;;;3.42;1.30;;;;;;;5.90;100.00;96774.56;5174742;27;20050;-59
2022/01/14 09:42:12;;;;;;;6.82;1.50;;;;;;;6.00;100.00;96794.75;5174776;27;20118;-59
2022/01/14 09:44:39;;;;;;;4.05;2.25;;;;;;;6.05;100.00;96789.69;5164977;27;20046;-59
2022/01/14 09:47:06;;;;;;;11.63;2.33;;;;;;;6.03;100.00;96800.22;5153657;27;20050;-59
2022/01/14 09:49:32;;;;;;;4.50;1.17;;;;;;;6.08;100.00;96807.19;5153470;27;20043;-58
2022/01/14 09:51:59;;;;;;;2.15;1.25;;;;;;;6.17;100.00;96807.56;5153954;27;20072;-57
2022/01/14 09:54:25;;;;;;;5.65;2.20;;;;;;;6.28;100.00;96808.28;5153975;27;20098;-58
2022/01/14 09:56:51;;;;;;;4.22;1.52;;;;;;;6.28;100.00;96807.50;5154710;27;20195;-57
2022/01/14 09:59:19;;;;;;;6.43;1.90;;;;;;;6.41;100.00;96811.34;5153807;27;20055;-58
2022/01/14 10:01:47;;;;;;;3.13;1.65;;;;;;;6.39;100.00;96810.97;5159939;27;20046;-59
2022/01/14 10:04:16;;;;;;;7.45;1.10;;;;;;;6.43;100.00;96835.44;5161713;27;20051;-58
2022/01/14 10:06:45;;;;;;;4.05;1.25;;;;;;;6.31;100.00;96853.00;5159753;27;20061;-59
2022/01/14 10:09:13;;;;;;;4.72;1.00;;;;;;;6.29;100.00;96920.63;5173990;27;20047;-58
2022/01/14 10:11:42;;;;;;;2.40;1.33;;;;;;;6.29;100.00;96997.59;5174458;27;20050;-59
2022/01/14 10:14:11;;;;;;;14.48;1.23;;;;;;;5.71;100.00;97019.66;5173912;27;20046;-54
2022/01/14 10:16:41;;;;;;;5.30;0.98;;;;;;;5.15;100.00;97128.47;5174253;27;20488;-55
2022/01/14 10:19:18;;;;;;;0.77;0.70;;;;;;;4.88;100.00;97151.56;5162884;27;20057;-51
2022/01/14 10:21:44;;;;;;;1.67;0.50;;;;;;;4.65;100.00;97168.06;5153718;27;20057;-55
2022/01/14 10:24:11;;;;;;;1.00;0.65;;;;;;;4.66;100.00;97158.75;5153141;27;20532;-56
2022/01/14 10:26:47;;;;;;;3.03;0.77;;;;;;;4.59;100.00;97167.59;5152899;27;20054;-55
2022/01/14 10:29:14;;;;;;;5.07;0.93;;;;;;;4.59;100.00;97183.88;5153129;27;20194;-56
2022/01/14 10:31:43;;;;;;;3.70;1.15;;;;;;;4.79;100.00;97175.53;5152404;27;20090;-54
2022/01/14 10:34:11;;;;;;;2.20;0.80;;;;;;;4.77;100.00;97194.16;5163040;27;20402;-54
2022/01/14 10:36:37;;;;;;;0.47;0.47;;;;;;;4.59;100.00;97204.81;5173016;27;20053;-53
2022/01/14 10:39:18;;;;;;;2.92;0.77;;;;;;;4.60;100.00;97214.50;5152938;27;20047;-52
2022/01/14 10:41:45;;;;;;;2.85;1.17;;;;;;;4.72;100.00;97215.03;5155894;27;20429;-53
2022/01/14 10:44:27;;;;;;;1.73;0.70;;;;;;;4.63;100.00;97230.88;5152434;27;20050;-52
2022/01/14 10:47:15;;;;;;;2.90;0.70;;;;;;;4.69;100.00;97207.63;5152574;27;20150;-53
2022/01/14 10:49:42;;;;;;;2.70;0.80;;;;;;;4.80;100.00;97199.63;5152454;27;20129;-51
2022/01/14 10:52:14;;;;;;;2.00;1.30;;;;;;;4.82;100.00;97191.06;5157109;27;20094;-53
2022/01/14 10:54:43;;;;;;;2.60;1.38;;;;;;;5.09;100.00;97188.97;5170146;27;20097;-53
2022/01/14 10:57:18;;;;;;;1.90;0.80;;;;;;;5.03;100.00;97172.25;5167432;27;20046;-48
2022/01/14 10:59:46;;;;;;;2.33;1.20;;;;;;;4.99;100.00;97157.84;5172953;27;20419;-52
2022/01/14 11:02:33;;;;;;;5.95;2.08;;;;;;;4.83;100.00;97119.31;5172904;27;20072;-52
2022/01/14 11:05:08;;;;;;;1.63;0.95;;;;;;;4.71;100.00;97096.00;5172095;27;20069;-52
2022/01/14 11:07:36;;;;;;;2.00;1.00;;;;;;;4.60;100.00;97104.06;5172886;27;20054;-51
2022/01/14 11:10:13;;;;;;;2.38;1.55;;;;;;;4.63;100.00;97094.34;5173049;27;20522;-50
2022/01/14 11:12:40;;;;;;;2.35;1.40;;;;;;;4.71;100.00;97094.03;5172993;27;20050;-51
2022/01/14 11:15:08;;;;;;;2.25;1.00;;;;;;;4.61;100.00;97021.47;5172891;27;20050;-54
2022/01/14 11:17:36;;;;;;;1.52;0.73;;;;;;;4.61;100.00;96991.63;5172577;27;20082;-52
2022/01/14 11:20:04;;;;;;;0.60;0.60;;;;;;;4.65;100.00;96942.78;5154105;27;20504;-52
2022/01/14 11:25:14;;;;;;;1.00;0.80;;;;;;;4.62;100.00;96881.13;5167683;27;20053;-53
2022/01/14 11:27:46;;;;;;;0.90;0.90;;;;;;;4.68;100.00;96833.47;5172928;27;20060;-50
2022/01/14 11:30:14;;;;;;;0.80;0.70;;;;;;;4.83;100.00;96775.34;5172948;27;20082;-54
2022/01/14 11:32:55;;;;;;;7.32;1.10;;;;;;;4.69;100.00;96727.22;5172402;27;20046;-57
2022/01/14 11:35:24;;;;;;;12.00;1.23;;;;;;;4.71;100.00;96705.16;5172426;27;20140;-54
2022/01/14 11:37:50;;;;;;;2.42;0.90;;;;;;;4.65;100.00;96688.47;5172426;27;20500;-55
2022/01/14 11:40:17;;;;;;;2.67;0.88;;;;;;;4.65;100.00;96701.25;5172358;27;20090;-53
2022/01/14 11:42:46;;;;;;;0.50;0.50;;;;;;;4.71;100.00;96724.91;5169609;27;20133;-53
2022/01/14 11:45:14;;;;;;;1.33;1.00;;;;;;;4.71;100.00;96724.16;5151811;27;20051;-58
2022/01/14 11:47:58;;;;;;;1.17;0.82;;;;;;;4.63;100.00;96709.00;5151815;27;20556;-57